sensor_id;sensor_type;location;lat;lon;timestamp;temperature;humidity
23560;DHT22;11958;50.836;4.438;2023-07-22T00:01:21;16.60;65.90
23560;DHT22;11958;50.836;4.438;2023-07-22T00:03:46;16.60;66.70
23560;DHT22;11958;50.836;4.438;2023-07-22T00:06:12;16.60;66.90
23560;DHT22;11958;50.836;4.438;2023-07-22T00:08:38;16.50;67.80
23560;DHT22;11958;50.836;4.438;2023-07-22T00:11:05;16.60;66.80
23560;DHT22;11958;50.836;4.438;2023-07-22T00:13:31;16.60;67.10
23560;DHT22;11958;50.836;4.438;2023-07-22T00:15:57;16.50;68.00
23560;DHT22;11958;50.836;4.438;2023-07-22T00:18:27;16.40;68.20
23560;DHT22;11958;50.836;4.438;2023-07-22T00:20:54;16.50;67.80
23560;DHT22;11958;50.836;4.438;2023-07-22T00:23:19;16.30;68.50
23560;DHT22;11958;50.836;4.438;2023-07-22T00:25:46;16.30;69.20
23560;DHT22;11958;50.836;4.438;2023-07-22T00:28:12;16.30;69.80
23560;DHT22;11958;50.836;4.438;2023-07-22T00:30:38;16.40;69.30
23560;DHT22;11958;50.836;4.438;2023-07-22T00:33:04;16.30;69.10
23560;DHT22;11958;50.836;4.438;2023-07-22T00:35:29;16.30;69.50
23560;DHT22;11958;50.836;4.438;2023-07-22T00:37:55;16.10;69.80
23560;DHT22;11958;50.836;4.438;2023-07-22T00:40:21;16.30;70.20
23560;DHT22;11958;50.836;4.438;2023-07-22T00:42:46;16.30;69.80
23560;DHT22;11958;50.836;4.438;2023-07-22T00:45:13;16.40;70.20
23560;DHT22;11958;50.836;4.438;2023-07-22T00:47:41;16.20;70.30
23560;DHT22;11958;50.836;4.438;2023-07-22T00:50:07;16.10;69.90
23560;DHT22;11958;50.836;4.438;2023-07-22T00:52:33;16.20;70.20
23560;DHT22;11958;50.836;4.438;2023-07-22T00:54:59;16.10;70.70
23560;DHT22;11958;50.836;4.438;2023-07-22T00:57:25;16.10;69.50
23560;DHT22;11958;50.836;4.438;2023-07-22T00:59:51;16.10;69.40
23560;DHT22;11958;50.836;4.438;2023-07-22T01:02:18;16.10;68.90
23560;DHT22;11958;50.836;4.438;2023-07-22T01:04:44;16.10;68.70
23560;DHT22;11958;50.836;4.438;2023-07-22T01:07:10;16.10;68.90
23560;DHT22;11958;50.836;4.438;2023-07-22T01:09:37;16.20;68.50
23560;DHT22;11958;50.836;4.438;2023-07-22T01:12:04;16.20;68.40
23560;DHT22;11958;50.836;4.438;2023-07-22T01:14:33;16.20;68.20
23560;DHT22;11958;50.836;4.438;2023-07-22T01:17:04;16.20;68.30
23560;DHT22;11958;50.836;4.438;2023-07-22T01:19:30;16.40;68.80
23560;DHT22;11958;50.836;4.438;2023-07-22T01:22:00;16.30;68.30
23560;DHT22;11958;50.836;4.438;2023-07-22T01:24:28;16.00;69.20
23560;DHT22;11958;50.836;4.438;2023-07-22T01:26:56;16.00;69.60
23560;DHT22;11958;50.836;4.438;2023-07-22T01:29:22;16.00;70.30
23560;DHT22;11958;50.836;4.438;2023-07-22T01:31:50;16.10;70.40
23560;DHT22;11958;50.836;4.438;2023-07-22T01:34:16;15.90;69.60
23560;DHT22;11958;50.836;4.438;2023-07-22T01:36:43;15.80;70.40
23560;DHT22;11958;50.836;4.438;2023-07-22T01:39:09;15.90;70.40
23560;DHT22;11958;50.836;4.438;2023-07-22T01:41:36;16.00;69.10
23560;DHT22;11958;50.836;4.438;2023-07-22T01:44:02;16.00;69.60
23560;DHT22;11958;50.836;4.438;2023-07-22T01:46:28;16.00;69.80
23560;DHT22;11958;50.836;4.438;2023-07-22T01:48:56;16.20;69.20
23560;DHT22;11958;50.836;4.438;2023-07-22T01:51:22;15.80;70.60
23560;DHT22;11958;50.836;4.438;2023-07-22T01:53:49;15.90;70.40
23560;DHT22;11958;50.836;4.438;2023-07-22T01:56:15;15.80;70.50
23560;DHT22;11958;50.836;4.438;2023-07-22T01:58:42;15.80;70.70
23560;DHT22;11958;50.836;4.438;2023-07-22T02:01:08;15.80;70.20
23560;DHT22;11958;50.836;4.438;2023-07-22T02:03:34;15.60;71.20
23560;DHT22;11958;50.836;4.438;2023-07-22T02:06:03;15.60;71.00
23560;DHT22;11958;50.836;4.438;2023-07-22T02:08:29;15.70;71.60
23560;DHT22;11958;50.836;4.438;2023-07-22T02:11:00;15.70;71.30
23560;DHT22;11958;50.836;4.438;2023-07-22T02:13:26;15.80;71.10
23560;DHT22;11958;50.836;4.438;2023-07-22T02:15:52;15.80;71.40
23560;DHT22;11958;50.836;4.438;2023-07-22T02:18:17;15.80;70.60
23560;DHT22;11958;50.836;4.438;2023-07-22T02:20:43;15.90;71.00
23560;DHT22;11958;50.836;4.438;2023-07-22T02:23:09;15.60;71.40
23560;DHT22;11958;50.836;4.438;2023-07-22T02:25:35;15.80;71.70
23560;DHT22;11958;50.836;4.438;2023-07-22T02:28:01;15.80;71.70
23560;DHT22;11958;50.836;4.438;2023-07-22T02:30:27;15.50;72.10
23560;DHT22;11958;50.836;4.438;2023-07-22T02:32:53;15.50;71.70
23560;DHT22;11958;50.836;4.438;2023-07-22T02:35:18;15.50;72.30
23560;DHT22;11958;50.836;4.438;2023-07-22T02:37:44;15.40;73.50
23560;DHT22;11958;50.836;4.438;2023-07-22T02:40:10;15.40;73.60
23560;DHT22;11958;50.836;4.438;2023-07-22T02:42:39;15.30;74.00
23560;DHT22;11958;50.836;4.438;2023-07-22T02:45:05;15.50;72.00
23560;DHT22;11958;50.836;4.438;2023-07-22T02:47:33;15.50;71.90
23560;DHT22;11958;50.836;4.438;2023-07-22T02:50:00;15.40;73.50
23560;DHT22;11958;50.836;4.438;2023-07-22T02:52:25;15.30;74.40
23560;DHT22;11958;50.836;4.438;2023-07-22T02:55:13;15.50;72.40
23560;DHT22;11958;50.836;4.438;2023-07-22T02:57:40;15.40;72.90
23560;DHT22;11958;50.836;4.438;2023-07-22T03:00:07;15.30;74.40
23560;DHT22;11958;50.836;4.438;2023-07-22T03:02:37;15.30;74.20
23560;DHT22;11958;50.836;4.438;2023-07-22T03:05:07;15.20;75.10
23560;DHT22;11958;50.836;4.438;2023-07-22T03:07:42;15.20;75.30
23560;DHT22;11958;50.836;4.438;2023-07-22T03:10:08;15.30;75.00
23560;DHT22;11958;50.836;4.438;2023-07-22T03:12:34;15.20;75.60
23560;DHT22;11958;50.836;4.438;2023-07-22T03:15:00;15.30;75.30
23560;DHT22;11958;50.836;4.438;2023-07-22T03:17:26;15.20;75.30
23560;DHT22;11958;50.836;4.438;2023-07-22T03:19:52;15.30;75.70
23560;DHT22;11958;50.836;4.438;2023-07-22T03:22:18;15.10;75.50
23560;DHT22;11958;50.836;4.438;2023-07-22T03:24:47;15.10;75.60
23560;DHT22;11958;50.836;4.438;2023-07-22T03:27:13;15.10;76.50
23560;DHT22;11958;50.836;4.438;2023-07-22T03:29:41;15.20;76.20
23560;DHT22;11958;50.836;4.438;2023-07-22T03:32:07;15.10;76.50
23560;DHT22;11958;50.836;4.438;2023-07-22T03:34:33;15.10;76.80
23560;DHT22;11958;50.836;4.438;2023-07-22T03:36:59;15.10;76.60
23560;DHT22;11958;50.836;4.438;2023-07-22T03:39:24;15.00;77.40
23560;DHT22;11958;50.836;4.438;2023-07-22T03:41:50;14.80;77.50
23560;DHT22;11958;50.836;4.438;2023-07-22T03:44:16;14.60;78.50
23560;DHT22;11958;50.836;4.438;2023-07-22T03:46:41;14.60;78.70
23560;DHT22;11958;50.836;4.438;2023-07-22T03:49:07;14.80;78.20
23560;DHT22;11958;50.836;4.438;2023-07-22T03:51:33;14.90;78.00
23560;DHT22;11958;50.836;4.438;2023-07-22T03:53:59;14.70;78.70
23560;DHT22;11958;50.836;4.438;2023-07-22T03:56:25;14.70;78.70
23560;DHT22;11958;50.836;4.438;2023-07-22T03:58:51;14.60;78.40
23560;DHT22;11958;50.836;4.438;2023-07-22T04:01:17;14.70;78.70
23560;DHT22;11958;50.836;4.438;2023-07-22T04:03:42;14.70;78.90
23560;DHT22;11958;50.836;4.438;2023-07-22T04:06:08;14.50;79.20
23560;DHT22;11958;50.836;4.438;2023-07-22T04:08:34;14.70;79.60
23560;DHT22;11958;50.836;4.438;2023-07-22T04:10:59;14.60;79.00
23560;DHT22;11958;50.836;4.438;2023-07-22T04:13:26;14.30;80.00
23560;DHT22;11958;50.836;4.438;2023-07-22T04:15:52;14.40;80.50
23560;DHT22;11958;50.836;4.438;2023-07-22T04:18:19;14.60;80.00
23560;DHT22;11958;50.836;4.438;2023-07-22T04:20:45;14.50;80.10
23560;DHT22;11958;50.836;4.438;2023-07-22T04:23:12;14.80;79.10
23560;DHT22;11958;50.836;4.438;2023-07-22T04:25:41;14.50;79.80
23560;DHT22;11958;50.836;4.438;2023-07-22T04:28:07;14.90;79.60
23560;DHT22;11958;50.836;4.438;2023-07-22T04:30:36;14.90;79.00
23560;DHT22;11958;50.836;4.438;2023-07-22T04:33:03;14.90;79.30
23560;DHT22;11958;50.836;4.438;2023-07-22T04:35:38;14.80;79.30
23560;DHT22;11958;50.836;4.438;2023-07-22T04:38:04;15.00;79.30
23560;DHT22;11958;50.836;4.438;2023-07-22T04:40:30;15.00;79.00
23560;DHT22;11958;50.836;4.438;2023-07-22T04:42:56;15.00;79.40
23560;DHT22;11958;50.836;4.438;2023-07-22T04:45:22;15.00;79.40
23560;DHT22;11958;50.836;4.438;2023-07-22T04:47:51;15.40;77.90
23560;DHT22;11958;50.836;4.438;2023-07-22T04:50:18;15.20;78.40
23560;DHT22;11958;50.836;4.438;2023-07-22T04:52:46;15.20;78.50
23560;DHT22;11958;50.836;4.438;2023-07-22T04:55:12;15.30;78.20
23560;DHT22;11958;50.836;4.438;2023-07-22T04:57:39;15.60;76.70
23560;DHT22;11958;50.836;4.438;2023-07-22T05:00:09;15.40;77.20
23560;DHT22;11958;50.836;4.438;2023-07-22T05:02:39;15.50;77.20
23560;DHT22;11958;50.836;4.438;2023-07-22T05:05:05;15.70;77.30
23560;DHT22;11958;50.836;4.438;2023-07-22T05:07:32;15.70;76.80
23560;DHT22;11958;50.836;4.438;2023-07-22T05:09:58;15.80;76.60
23560;DHT22;11958;50.836;4.438;2023-07-22T05:12:23;15.50;77.40
23560;DHT22;11958;50.836;4.438;2023-07-22T05:14:49;15.70;77.10
23560;DHT22;11958;50.836;4.438;2023-07-22T05:17:15;15.70;76.30
23560;DHT22;11958;50.836;4.438;2023-07-22T05:19:41;15.40;78.80
23560;DHT22;11958;50.836;4.438;2023-07-22T05:22:07;15.60;77.70
23560;DHT22;11958;50.836;4.438;2023-07-22T05:24:33;15.40;77.90
23560;DHT22;11958;50.836;4.438;2023-07-22T05:26:58;15.40;79.50
23560;DHT22;11958;50.836;4.438;2023-07-22T05:29:24;15.80;77.40
23560;DHT22;11958;50.836;4.438;2023-07-22T05:31:50;15.80;77.40
23560;DHT22;11958;50.836;4.438;2023-07-22T05:34:15;15.80;77.40
23560;DHT22;11958;50.836;4.438;2023-07-22T05:36:41;15.60;78.10
23560;DHT22;11958;50.836;4.438;2023-07-22T05:39:07;15.60;78.40
23560;DHT22;11958;50.836;4.438;2023-07-22T05:41:33;15.50;78.40
23560;DHT22;11958;50.836;4.438;2023-07-22T05:43:59;15.60;78.50
23560;DHT22;11958;50.836;4.438;2023-07-22T05:46:25;15.80;78.30
23560;DHT22;11958;50.836;4.438;2023-07-22T05:48:51;15.90;78.00
23560;DHT22;11958;50.836;4.438;2023-07-22T05:51:17;16.30;77.20
23560;DHT22;11958;50.836;4.438;2023-07-22T05:53:43;16.20;76.90
23560;DHT22;11958;50.836;4.438;2023-07-22T05:56:09;16.30;76.20
23560;DHT22;11958;50.836;4.438;2023-07-22T05:58:35;16.40;76.80
23560;DHT22;11958;50.836;4.438;2023-07-22T06:01:00;16.50;76.80
23560;DHT22;11958;50.836;4.438;2023-07-22T06:03:26;16.50;76.30
23560;DHT22;11958;50.836;4.438;2023-07-22T06:05:52;16.70;76.60
23560;DHT22;11958;50.836;4.438;2023-07-22T06:08:17;16.80;76.40
23560;DHT22;11958;50.836;4.438;2023-07-22T06:10:43;16.90;75.80
23560;DHT22;11958;50.836;4.438;2023-07-22T06:13:09;17.00;75.80
23560;DHT22;11958;50.836;4.438;2023-07-22T06:15:35;16.90;75.70
23560;DHT22;11958;50.836;4.438;2023-07-22T06:18:01;17.10;75.60
23560;DHT22;11958;50.836;4.438;2023-07-22T06:20:27;17.20;74.90
23560;DHT22;11958;50.836;4.438;2023-07-22T06:22:53;17.10;75.20
23560;DHT22;11958;50.836;4.438;2023-07-22T06:25:19;17.20;75.00
23560;DHT22;11958;50.836;4.438;2023-07-22T06:27:45;17.20;75.10
23560;DHT22;11958;50.836;4.438;2023-07-22T06:30:10;17.30;74.70
23560;DHT22;11958;50.836;4.438;2023-07-22T06:32:39;17.60;74.10
23560;DHT22;11958;50.836;4.438;2023-07-22T06:35:05;17.20;75.50
23560;DHT22;11958;50.836;4.438;2023-07-22T06:37:31;17.30;75.00
23560;DHT22;11958;50.836;4.438;2023-07-22T06:39:57;17.40;75.50
23560;DHT22;11958;50.836;4.438;2023-07-22T06:42:22;17.40;76.10
23560;DHT22;11958;50.836;4.438;2023-07-22T06:44:49;17.80;73.90
23560;DHT22;11958;50.836;4.438;2023-07-22T06:47:15;17.70;74.10
23560;DHT22;11958;50.836;4.438;2023-07-22T06:49:41;17.70;73.50
23560;DHT22;11958;50.836;4.438;2023-07-22T06:52:07;17.30;74.70
23560;DHT22;11958;50.836;4.438;2023-07-22T06:54:33;17.30;75.10
23560;DHT22;11958;50.836;4.438;2023-07-22T06:56:59;17.20;75.00
23560;DHT22;11958;50.836;4.438;2023-07-22T06:59:26;17.80;74.30
23560;DHT22;11958;50.836;4.438;2023-07-22T07:01:52;17.50;74.20
23560;DHT22;11958;50.836;4.438;2023-07-22T07:04:18;17.60;74.60
23560;DHT22;11958;50.836;4.438;2023-07-22T07:06:44;17.40;74.40
23560;DHT22;11958;50.836;4.438;2023-07-22T07:09:11;17.60;74.30
23560;DHT22;11958;50.836;4.438;2023-07-22T07:11:37;17.80;73.80
23560;DHT22;11958;50.836;4.438;2023-07-22T07:14:02;17.90;74.30
23560;DHT22;11958;50.836;4.438;2023-07-22T07:16:30;18.00;73.30
23560;DHT22;11958;50.836;4.438;2023-07-22T07:18:57;17.90;73.80
23560;DHT22;11958;50.836;4.438;2023-07-22T07:21:24;17.70;73.60
23560;DHT22;11958;50.836;4.438;2023-07-22T07:23:50;17.70;73.80
23560;DHT22;11958;50.836;4.438;2023-07-22T07:26:18;18.00;73.10
23560;DHT22;11958;50.836;4.438;2023-07-22T07:28:45;17.70;74.40
23560;DHT22;11958;50.836;4.438;2023-07-22T07:31:24;18.30;71.20
23560;DHT22;11958;50.836;4.438;2023-07-22T07:33:50;18.40;71.20
23560;DHT22;11958;50.836;4.438;2023-07-22T07:36:16;18.40;71.20
23560;DHT22;11958;50.836;4.438;2023-07-22T07:38:42;18.40;70.10
23560;DHT22;11958;50.836;4.438;2023-07-22T07:41:08;18.70;69.90
23560;DHT22;11958;50.836;4.438;2023-07-22T07:43:40;18.60;70.60
23560;DHT22;11958;50.836;4.438;2023-07-22T07:46:21;19.00;68.80
23560;DHT22;11958;50.836;4.438;2023-07-22T07:48:49;19.10;68.60
23560;DHT22;11958;50.836;4.438;2023-07-22T07:51:16;19.40;68.50
23560;DHT22;11958;50.836;4.438;2023-07-22T07:53:43;19.30;68.40
23560;DHT22;11958;50.836;4.438;2023-07-22T07:56:18;19.50;67.10
23560;DHT22;11958;50.836;4.438;2023-07-22T07:58:45;19.50;67.80
23560;DHT22;11958;50.836;4.438;2023-07-22T08:01:11;19.80;66.00
23560;DHT22;11958;50.836;4.438;2023-07-22T08:03:37;19.20;67.00
23560;DHT22;11958;50.836;4.438;2023-07-22T08:06:03;19.20;67.70
23560;DHT22;11958;50.836;4.438;2023-07-22T08:08:29;19.10;69.20
23560;DHT22;11958;50.836;4.438;2023-07-22T08:11:16;19.30;68.80
23560;DHT22;11958;50.836;4.438;2023-07-22T08:13:43;19.20;69.00
23560;DHT22;11958;50.836;4.438;2023-07-22T08:16:11;19.40;68.90
23560;DHT22;11958;50.836;4.438;2023-07-22T08:18:37;19.60;67.10
23560;DHT22;11958;50.836;4.438;2023-07-22T08:21:05;19.50;68.40
23560;DHT22;11958;50.836;4.438;2023-07-22T08:23:32;19.60;67.20
23560;DHT22;11958;50.836;4.438;2023-07-22T08:25:58;19.80;67.10
23560;DHT22;11958;50.836;4.438;2023-07-22T08:28:24;20.00;66.30
23560;DHT22;11958;50.836;4.438;2023-07-22T08:30:50;19.90;65.80
23560;DHT22;11958;50.836;4.438;2023-07-22T08:33:16;20.10;66.40
23560;DHT22;11958;50.836;4.438;2023-07-22T08:35:42;20.20;66.10
23560;DHT22;11958;50.836;4.438;2023-07-22T08:38:08;20.10;65.50
23560;DHT22;11958;50.836;4.438;2023-07-22T08:40:38;20.20;65.30
23560;DHT22;11958;50.836;4.438;2023-07-22T08:43:06;20.10;66.60
23560;DHT22;11958;50.836;4.438;2023-07-22T08:45:34;20.00;64.40
23560;DHT22;11958;50.836;4.438;2023-07-22T08:48:07;19.80;64.90
23560;DHT22;11958;50.836;4.438;2023-07-22T08:50:45;19.50;66.70
23560;DHT22;11958;50.836;4.438;2023-07-22T08:53:14;19.40;67.20
23560;DHT22;11958;50.836;4.438;2023-07-22T08:55:41;19.70;66.50
23560;DHT22;11958;50.836;4.438;2023-07-22T08:58:11;19.90;65.50
23560;DHT22;11958;50.836;4.438;2023-07-22T09:00:38;20.00;63.40
23560;DHT22;11958;50.836;4.438;2023-07-22T09:03:04;19.70;65.30
23560;DHT22;11958;50.836;4.438;2023-07-22T09:05:34;19.90;65.10
23560;DHT22;11958;50.836;4.438;2023-07-22T09:08:04;19.90;64.20
23560;DHT22;11958;50.836;4.438;2023-07-22T09:10:31;20.00;63.90
23560;DHT22;11958;50.836;4.438;2023-07-22T09:12:59;19.90;63.70
23560;DHT22;11958;50.836;4.438;2023-07-22T09:15:25;20.00;62.40
23560;DHT22;11958;50.836;4.438;2023-07-22T09:17:51;20.10;61.50
23560;DHT22;11958;50.836;4.438;2023-07-22T09:20:17;20.30;60.70
23560;DHT22;11958;50.836;4.438;2023-07-22T09:22:45;20.30;60.60
23560;DHT22;11958;50.836;4.438;2023-07-22T09:27:45;19.80;61.20
23560;DHT22;11958;50.836;4.438;2023-07-22T09:30:27;19.90;59.60
23560;DHT22;11958;50.836;4.438;2023-07-22T09:32:58;20.30;59.00
23560;DHT22;11958;50.836;4.438;2023-07-22T09:35:27;20.10;57.80
23560;DHT22;11958;50.836;4.438;2023-07-22T09:37:54;20.10;58.10
23560;DHT22;11958;50.836;4.438;2023-07-22T09:40:27;20.30;58.90
23560;DHT22;11958;50.836;4.438;2023-07-22T09:43:00;20.40;57.80
23560;DHT22;11958;50.836;4.438;2023-07-22T09:45:30;20.30;54.50
23560;DHT22;11958;50.836;4.438;2023-07-22T09:47:56;20.00;54.40
23560;DHT22;11958;50.836;4.438;2023-07-22T09:50:23;20.10;54.40
23560;DHT22;11958;50.836;4.438;2023-07-22T09:52:54;20.30;54.30
23560;DHT22;11958;50.836;4.438;2023-07-22T09:55:22;20.10;53.30
23560;DHT22;11958;50.836;4.438;2023-07-22T09:58:13;20.20;53.60
23560;DHT22;11958;50.836;4.438;2023-07-22T10:00:50;20.40;54.40
23560;DHT22;11958;50.836;4.438;2023-07-22T10:03:16;20.50;53.60
23560;DHT22;11958;50.836;4.438;2023-07-22T10:05:45;20.70;52.90
23560;DHT22;11958;50.836;4.438;2023-07-22T10:08:14;20.70;53.10
23560;DHT22;11958;50.836;4.438;2023-07-22T10:10:42;20.90;51.50
23560;DHT22;11958;50.836;4.438;2023-07-22T10:13:09;21.20;51.10
23560;DHT22;11958;50.836;4.438;2023-07-22T10:15:36;21.40;49.40
23560;DHT22;11958;50.836;4.438;2023-07-22T10:18:03;21.40;50.10
23560;DHT22;11958;50.836;4.438;2023-07-22T10:20:30;21.60;50.10
23560;DHT22;11958;50.836;4.438;2023-07-22T10:23:00;21.60;49.50
23560;DHT22;11958;50.836;4.438;2023-07-22T10:25:26;21.60;48.50
23560;DHT22;11958;50.836;4.438;2023-07-22T10:27:53;22.20;50.00
23560;DHT22;11958;50.836;4.438;2023-07-22T10:30:19;21.90;48.30
23560;DHT22;11958;50.836;4.438;2023-07-22T10:32:52;22.00;45.30
23560;DHT22;11958;50.836;4.438;2023-07-22T10:37:49;21.50;43.00
23560;DHT22;11958;50.836;4.438;2023-07-22T10:40:25;21.40;44.60
23560;DHT22;11958;50.836;4.438;2023-07-22T10:42:53;21.60;43.80
23560;DHT22;11958;50.836;4.438;2023-07-22T10:45:33;21.50;43.10
23560;DHT22;11958;50.836;4.438;2023-07-22T10:48:07;21.50;42.90
23560;DHT22;11958;50.836;4.438;2023-07-22T10:50:53;21.60;43.40
23560;DHT22;11958;50.836;4.438;2023-07-22T10:58:32;21.50;42.50
23560;DHT22;11958;50.836;4.438;2023-07-22T11:01:24;21.90;44.70
23560;DHT22;11958;50.836;4.438;2023-07-22T11:04:12;21.80;43.50
23560;DHT22;11958;50.836;4.438;2023-07-22T11:09:33;21.90;44.50
23560;DHT22;11958;50.836;4.438;2023-07-22T11:12:12;22.40;43.00
23560;DHT22;11958;50.836;4.438;2023-07-22T11:17:06;22.80;42.30
23560;DHT22;11958;50.836;4.438;2023-07-22T11:19:33;22.60;41.50
23560;DHT22;11958;50.836;4.438;2023-07-22T11:22:00;22.60;41.20
23560;DHT22;11958;50.836;4.438;2023-07-22T11:24:26;22.70;41.10
23560;DHT22;11958;50.836;4.438;2023-07-22T11:26:53;22.80;41.50
23560;DHT22;11958;50.836;4.438;2023-07-22T11:29:29;23.10;40.70
23560;DHT22;11958;50.836;4.438;2023-07-22T11:31:55;22.80;40.70
23560;DHT22;11958;50.836;4.438;2023-07-22T11:34:23;23.10;42.30
23560;DHT22;11958;50.836;4.438;2023-07-22T11:36:52;23.10;40.60
23560;DHT22;11958;50.836;4.438;2023-07-22T11:39:20;22.70;40.70
23560;DHT22;11958;50.836;4.438;2023-07-22T11:41:47;22.60;40.40
23560;DHT22;11958;50.836;4.438;2023-07-22T11:44:18;22.60;40.70
23560;DHT22;11958;50.836;4.438;2023-07-22T11:52:04;22.90;40.00
23560;DHT22;11958;50.836;4.438;2023-07-22T11:54:32;22.90;39.90
23560;DHT22;11958;50.836;4.438;2023-07-22T11:57:16;23.10;40.20
23560;DHT22;11958;50.836;4.438;2023-07-22T11:59:49;22.90;40.00
23560;DHT22;11958;50.836;4.438;2023-07-22T12:02:22;23.00;38.90
23560;DHT22;11958;50.836;4.438;2023-07-22T12:04:59;23.00;38.30
23560;DHT22;11958;50.836;4.438;2023-07-22T12:07:27;22.90;39.10
23560;DHT22;11958;50.836;4.438;2023-07-22T12:09:54;23.50;38.70
23560;DHT22;11958;50.836;4.438;2023-07-22T12:12:43;24.00;37.40
23560;DHT22;11958;50.836;4.438;2023-07-22T12:15:19;24.00;36.70
23560;DHT22;11958;50.836;4.438;2023-07-22T12:17:52;24.00;36.30
23560;DHT22;11958;50.836;4.438;2023-07-22T12:20:22;23.90;36.00
23560;DHT22;11958;50.836;4.438;2023-07-22T12:22:48;23.90;35.60
23560;DHT22;11958;50.836;4.438;2023-07-22T12:25:14;23.60;36.60
23560;DHT22;11958;50.836;4.438;2023-07-22T12:27:39;24.70;36.10
23560;DHT22;11958;50.836;4.438;2023-07-22T12:30:06;25.10;34.50
23560;DHT22;11958;50.836;4.438;2023-07-22T12:32:33;25.50;33.10
23560;DHT22;11958;50.836;4.438;2023-07-22T12:34:58;26.10;33.60
23560;DHT22;11958;50.836;4.438;2023-07-22T12:37:24;27.10;30.40
23560;DHT22;11958;50.836;4.438;2023-07-22T12:39:51;27.60;30.30
23560;DHT22;11958;50.836;4.438;2023-07-22T12:42:16;27.00;30.10
23560;DHT22;11958;50.836;4.438;2023-07-22T12:44:42;26.70;31.60
23560;DHT22;11958;50.836;4.438;2023-07-22T12:47:08;27.00;29.60
23560;DHT22;11958;50.836;4.438;2023-07-22T12:49:34;27.10;27.20
23560;DHT22;11958;50.836;4.438;2023-07-22T12:51:59;28.20;27.80
23560;DHT22;11958;50.836;4.438;2023-07-22T12:54:30;29.60;25.80
23560;DHT22;11958;50.836;4.438;2023-07-22T12:56:56;29.00;25.60
23560;DHT22;11958;50.836;4.438;2023-07-22T12:59:22;28.50;27.20
23560;DHT22;11958;50.836;4.438;2023-07-22T13:01:48;27.60;27.80
23560;DHT22;11958;50.836;4.438;2023-07-22T13:04:13;28.50;27.90
23560;DHT22;11958;50.836;4.438;2023-07-22T13:06:39;29.20;24.30
23560;DHT22;11958;50.836;4.438;2023-07-22T13:09:05;29.60;25.70
23560;DHT22;11958;50.836;4.438;2023-07-22T13:11:31;27.90;28.10
23560;DHT22;11958;50.836;4.438;2023-07-22T13:14:01;26.30;29.10
23560;DHT22;11958;50.836;4.438;2023-07-22T13:16:26;25.70;29.80
23560;DHT22;11958;50.836;4.438;2023-07-22T13:18:52;25.50;32.50
23560;DHT22;11958;50.836;4.438;2023-07-22T13:21:53;25.20;30.80
23560;DHT22;11958;50.836;4.438;2023-07-22T13:24:18;24.50;33.30
23560;DHT22;11958;50.836;4.438;2023-07-22T13:26:55;24.60;32.90
23560;DHT22;11958;50.836;4.438;2023-07-22T13:29:31;24.40;33.80
23560;DHT22;11958;50.836;4.438;2023-07-22T13:32:03;24.40;34.90
23560;DHT22;11958;50.836;4.438;2023-07-22T13:34:29;24.50;32.80
23560;DHT22;11958;50.836;4.438;2023-07-22T13:36:55;24.40;33.80
23560;DHT22;11958;50.836;4.438;2023-07-22T13:39:21;25.10;33.40
23560;DHT22;11958;50.836;4.438;2023-07-22T13:41:47;25.10;32.50
23560;DHT22;11958;50.836;4.438;2023-07-22T13:44:13;25.00;30.70
23560;DHT22;11958;50.836;4.438;2023-07-22T13:46:44;25.40;32.40
23560;DHT22;11958;50.836;4.438;2023-07-22T13:49:10;25.70;33.50
23560;DHT22;11958;50.836;4.438;2023-07-22T13:51:48;25.80;31.80
23560;DHT22;11958;50.836;4.438;2023-07-22T13:54:22;25.00;33.10
23560;DHT22;11958;50.836;4.438;2023-07-22T13:56:48;24.30;33.20
23560;DHT22;11958;50.836;4.438;2023-07-22T13:59:14;23.70;35.20
23560;DHT22;11958;50.836;4.438;2023-07-22T14:01:39;23.70;36.00
23560;DHT22;11958;50.836;4.438;2023-07-22T14:04:22;23.40;38.20
23560;DHT22;11958;50.836;4.438;2023-07-22T14:06:47;22.80;37.40
23560;DHT22;11958;50.836;4.438;2023-07-22T14:09:13;22.40;38.50
23560;DHT22;11958;50.836;4.438;2023-07-22T14:11:39;22.00;41.00
23560;DHT22;11958;50.836;4.438;2023-07-22T14:14:04;22.20;40.10
23560;DHT22;11958;50.836;4.438;2023-07-22T14:16:42;22.00;38.80
23560;DHT22;11958;50.836;4.438;2023-07-22T14:19:24;21.80;41.30
23560;DHT22;11958;50.836;4.438;2023-07-22T14:21:50;21.90;41.00
23560;DHT22;11958;50.836;4.438;2023-07-22T14:24:15;22.30;40.30
23560;DHT22;11958;50.836;4.438;2023-07-22T14:26:53;22.10;39.60
23560;DHT22;11958;50.836;4.438;2023-07-22T14:29:30;21.80;40.30
23560;DHT22;11958;50.836;4.438;2023-07-22T14:32:05;21.90;40.40
23560;DHT22;11958;50.836;4.438;2023-07-22T14:34:43;22.10;40.30
23560;DHT22;11958;50.836;4.438;2023-07-22T14:37:12;22.40;40.20
23560;DHT22;11958;50.836;4.438;2023-07-22T14:39:46;22.50;39.30
23560;DHT22;11958;50.836;4.438;2023-07-22T14:42:12;22.70;39.60
23560;DHT22;11958;50.836;4.438;2023-07-22T14:44:50;23.00;40.00
23560;DHT22;11958;50.836;4.438;2023-07-22T14:47:24;23.90;37.50
23560;DHT22;11958;50.836;4.438;2023-07-22T14:50:01;23.60;37.90
23560;DHT22;11958;50.836;4.438;2023-07-22T14:52:32;23.60;38.00
23560;DHT22;11958;50.836;4.438;2023-07-22T14:55:20;23.70;37.70
23560;DHT22;11958;50.836;4.438;2023-07-22T14:57:54;24.30;36.80
23560;DHT22;11958;50.836;4.438;2023-07-22T15:00:32;24.60;36.10
23560;DHT22;11958;50.836;4.438;2023-07-22T15:02:58;24.70;36.70
23560;DHT22;11958;50.836;4.438;2023-07-22T15:05:23;25.70;35.10
23560;DHT22;11958;50.836;4.438;2023-07-22T15:07:50;26.20;33.60
23560;DHT22;11958;50.836;4.438;2023-07-22T15:10:15;26.20;35.00
23560;DHT22;11958;50.836;4.438;2023-07-22T15:12:41;25.40;34.60
23560;DHT22;11958;50.836;4.438;2023-07-22T15:15:21;25.10;35.70
23560;DHT22;11958;50.836;4.438;2023-07-22T15:17:47;25.70;35.10
23560;DHT22;11958;50.836;4.438;2023-07-22T15:20:13;25.80;34.90
23560;DHT22;11958;50.836;4.438;2023-07-22T15:22:38;25.20;34.40
23560;DHT22;11958;50.836;4.438;2023-07-22T15:25:07;25.00;36.00
23560;DHT22;11958;50.836;4.438;2023-07-22T15:27:39;25.00;36.20
23560;DHT22;11958;50.836;4.438;2023-07-22T15:30:11;24.90;36.80
23560;DHT22;11958;50.836;4.438;2023-07-22T15:32:38;24.10;35.80
23560;DHT22;11958;50.836;4.438;2023-07-22T15:35:04;24.10;37.70
23560;DHT22;11958;50.836;4.438;2023-07-22T15:37:30;23.50;39.50
23560;DHT22;11958;50.836;4.438;2023-07-22T15:40:10;23.40;39.10
23560;DHT22;11958;50.836;4.438;2023-07-22T15:42:36;23.00;41.30
23560;DHT22;11958;50.836;4.438;2023-07-22T15:45:04;23.50;41.10
23560;DHT22;11958;50.836;4.438;2023-07-22T15:47:44;23.30;42.10
23560;DHT22;11958;50.836;4.438;2023-07-22T15:50:10;22.70;41.00
23560;DHT22;11958;50.836;4.438;2023-07-22T15:52:39;22.50;40.70
23560;DHT22;11958;50.836;4.438;2023-07-22T15:55:05;22.50;40.20
23560;DHT22;11958;50.836;4.438;2023-07-22T15:57:48;22.70;41.80